Pintail — WDF5177 — position and weather

sailwx.info

Track history (hours):
 
Tides and Currents Weather Stations Pressure Air Temp Water Temp Dewpoint Dewpoint Depression Visibility Wind Speed Wind Dir Waves Ship Positions

Pintail

Owner: Pintail Marine Services, Inc, Friday Harbor, WA. More information available from US FCC via Universal Licensing System and Coast Guard Vessel Documentation Center.

Last reported at 2017-Mar-23 23:28 UTC. Time now 2017-Mar-24 00:18 UTC.
Position N 48°32' W 122°60'.

Length 19 m.

Type: Towing. MMSI: 367460260.

Date/timePositionNaut miles runAvg speedWind from/ knotsBaromVisibWave heightAir tempDewpointWater temp
2017-Mar-23 23:28N 48°32' W 122°60'0 0.0
2017-Mar-23 22:31N 48°32' W 122°60'0 0.0
2017-Mar-23 21:28N 48°32' W 122°60'0 0.0
2017-Mar-23 20:32N 48°32' W 122°60'4 4.5
2017-Mar-23 19:33N 48°34' W 122°54'6 5.7
2017-Mar-23 18:33N 48°32' W 122°46'3 0.2
2017-Mar-22 22:33N 48°35' W 122°45'5 5.3
2017-Mar-22 21:33N 48°34' W 122°53'6 5.4
2017-Mar-22 20:30N 48°32' W 123°00'0 0.1
2017-Mar-22 19:31N 48°32' W 122°60'0 0.0
2017-Mar-22 18:31N 48°32' W 122°60'0 0.1
2017-Mar-22 17:33N 48°32' W 122°60'6 5.5
2017-Mar-22 16:32N 48°34' W 122°53'6 5.5
2017-Mar-22 15:31N 48°32' W 122°45'3 0.2
2017-Mar-22 00:24N 48°32' W 122°40'5 5.7
2017-Mar-21 23:30N 48°32' W 122°48'5 5.0
2017-Mar-21 22:33N 48°33' W 122°55'4 3.6
2017-Mar-21 21:31N 48°32' W 122°60'0 0.0
2017-Mar-21 20:31N 48°32' W 122°60'0 0.0
2017-Mar-21 19:31N 48°32' W 122°60'0 0.0
2017-Mar-21 18:32N 48°32' W 122°60'0 0.0
2017-Mar-21 17:32N 48°32' W 122°60'0 0.0
2017-Mar-21 16:23N 48°32' W 122°60'0 0.0
2017-Mar-21 15:32N 48°32' W 122°60'0 0.0
2017-Mar-21 14:31N 48°32' W 122°60'0 0.0
2017-Mar-21 13:31N 48°32' W 122°60'0 0.0
2017-Mar-21 12:31N 48°32' W 122°60'0 0.0
2017-Mar-21 11:31N 48°32' W 122°60'0 0.0
2017-Mar-21 10:31N 48°32' W 122°60'0 0.0
2017-Mar-21 09:31N 48°32' W 122°60'0 0.0
2017-Mar-21 08:31N 48°32' W 122°60'0 0.0
2017-Mar-21 07:31N 48°32' W 122°60'0 0.0
2017-Mar-21 06:31N 48°32' W 122°60'0 0.0
2017-Mar-21 05:31N 48°32' W 122°60'0 0.0
2017-Mar-21 04:31N 48°32' W 122°60'0 0.0
2017-Mar-21 03:31N 48°32' W 122°60'0 0.0
2017-Mar-21 02:28N 48°32' W 122°60'0 0.0
2017-Mar-21 01:28N 48°32' W 122°60'0 0.0
2017-Mar-21 00:31N 48°32' W 122°60'0 0.0
2017-Mar-20 23:28N 48°32' W 122°60'0 0.0
2017-Mar-20 22:31N 48°32' W 122°60'0 0.0
2017-Mar-20 21:28N 48°32' W 122°60'0 0.1
2017-Mar-20 20:30N 48°32' W 123°00'5 5.2
2017-Mar-20 19:33N 48°34' W 122°54'6 5.2
2017-Mar-20 18:30N 48°32' W 122°46'6 6.3
2017-Mar-20 17:33N 48°31' W 122°37'9 4.4
2017-Mar-20 15:31N 48°33' W 122°50'5 5.0
2017-Mar-20 14:33N 48°32' W 122°58'2 1.6
2017-Mar-20 13:31N 48°32' W 122°60'0 0.0
2017-Mar-20 12:31N 48°32' W 122°60'0 0.0
2017-Mar-20 11:31N 48°32' W 122°60'0 0.0
2017-Mar-20 10:28N 48°32' W 122°60'0 0.0
2017-Mar-20 09:31N 48°32' W 122°60'0 0.0
2017-Mar-20 08:28N 48°32' W 122°60'0 0.0
2017-Mar-20 07:31N 48°32' W 122°60'0 0.0
2017-Mar-20 06:31N 48°32' W 122°60'0 0.0
2017-Mar-20 05:31N 48°32' W 122°60'0 0.0
2017-Mar-20 04:28N 48°32' W 122°60'0 0.0
2017-Mar-20 03:31N 48°32' W 122°60'0 0.0
2017-Mar-20 02:31N 48°32' W 122°60'0 0.0
2017-Mar-20 01:31N 48°32' W 122°60'0 0.0
2017-Mar-20 00:31N 48°32' W 122°60'0 0.0
2017-Mar-19 23:31N 48°32' W 122°60'0 0.0
2017-Mar-19 22:31N 48°32' W 122°60'0 0.0
2017-Mar-19 21:31N 48°32' W 122°60'0 0.0
2017-Mar-19 20:31N 48°32' W 122°60'0 0.0
2017-Mar-19 19:31N 48°32' W 122°60'0 0.0
2017-Mar-19 18:31N 48°32' W 122°60'0 0.0
2017-Mar-19 17:32N 48°32' W 122°60'0 0.0
2017-Mar-19 16:32N 48°32' W 122°60'0 0.0
2017-Mar-19 15:31N 48°32' W 122°60'0 0.0
2017-Mar-19 14:28N 48°32' W 122°60'0 0.0
2017-Mar-19 13:31N 48°32' W 122°60'0 0.0
2017-Mar-19 12:28N 48°32' W 122°60'0 0.0
2017-Mar-19 11:31N 48°32' W 122°60'0 0.0
2017-Mar-19 10:31N 48°32' W 122°60'0 0.0
2017-Mar-19 09:31N 48°32' W 122°60'0 0.0
2017-Mar-19 08:31N 48°32' W 122°60'0 0.0
2017-Mar-19 07:31N 48°32' W 122°60'0 0.0
2017-Mar-19 06:32N 48°32' W 122°60'0 0.0
2017-Mar-19 05:32N 48°32' W 122°60'0 0.0
2017-Mar-19 04:32N 48°32' W 122°60'0 0.0
2017-Mar-19 03:32N 48°32' W 122°60'0 0.0
2017-Mar-19 02:32N 48°32' W 122°60'0 0.0
2017-Mar-19 01:32N 48°32' W 122°60'3 3.0
2017-Mar-19 00:33N 48°33' W 122°56'4 3.5
2017-Mar-18 23:33N 48°32' W 122°51'4 3.8
2017-Mar-18 22:30N 48°30' W 122°45'33 1.6
2017-Mar-18 01:11N 48°01' W 122°21'4 6.3
2017-Mar-18 00:33N 47°57' W 122°20'6 5.9
2017-Mar-17 23:33N 47°51' W 122°23'6 6.0
2017-Mar-17 22:33N 47°45' W 122°25'7 6.6
2017-Mar-17 21:33N 47°39' W 122°27'7 7.0
2017-Mar-17 20:33N 47°32' W 122°25'7 6.9
2017-Mar-17 19:33N 47°25' W 122°22'6 5.9
2017-Mar-17 18:33N 47°20' W 122°25'0 0.0
2017-Mar-17 11:33N 47°20' W 122°25'5 5.5
2017-Mar-17 10:34N 47°25' W 122°23'6 5.7
2017-Mar-17 09:33N 47°31' W 122°26'6 5.9
2017-Mar-17 08:33N 47°36' W 122°28'5 5.3
2017-Mar-17 07:33N 47°41' W 122°28'5 4.9
2017-Mar-17 06:33N 47°46' W 122°27'5 5.4
2017-Mar-17 05:33N 47°52' W 122°29'38 5.9
2017-Mar-16 23:12N 48°25' W 122°55'3 4.5
2017-Mar-16 22:33N 48°28' W 122°57'5 4.9
2017-Mar-16 21:33N 48°32' W 122°60'0 0.1
2017-Mar-16 20:33N 48°32' W 122°60'6 5.5
2017-Mar-16 19:32N 48°34' W 122°52'5 5.4
2017-Mar-16 18:33N 48°32' W 122°44'5 4.3
2017-Mar-16 17:22N 48°31' W 122°36'4 4.4
2017-Mar-16 16:23N 48°32' W 122°43'5 5.4
2017-Mar-16 15:32N 48°32' W 122°50'4 4.4
2017-Mar-16 14:34N 48°33' W 122°56'3 2.7
2017-Mar-16 13:32N 48°32' W 122°60'0 0.0
2017-Mar-16 12:29N 48°32' W 122°60'0 0.0
2017-Mar-16 11:32N 48°32' W 122°60'0 0.0
2017-Mar-16 10:32N 48°32' W 122°60'0 0.0
2017-Mar-16 09:29N 48°32' W 122°60'0 0.0
2017-Mar-16 08:32N 48°32' W 122°60'0 0.0
2017-Mar-16 07:29N 48°32' W 122°60'0 0.0
2017-Mar-16 06:32N 48°32' W 122°60'0 0.0
2017-Mar-16 05:32N 48°32' W 122°60'0 0.0
2017-Mar-16 04:29N 48°32' W 122°60'0 0.0
2017-Mar-16 03:29N 48°32' W 122°60'5 5.0
2017-Mar-16 02:33N 48°34' W 122°54'6 6.2
2017-Mar-16 01:33N 48°31' W 122°45'5 5.4
2017-Mar-16 00:33N 48°31' W 122°37'7 4.9
2017-Mar-15 23:08N 48°31' W 122°47'3 6.0
2017-Mar-15 22:33N 48°34' W 122°51'6 5.5
2017-Mar-15 21:33N 48°32' W 122°59'1 0.6
2017-Mar-15 20:31N 48°32' W 122°60'0 0.0
2017-Mar-15 19:31N 48°32' W 122°60'0 0.4
2017-Mar-15 18:32N 48°32' W 123°00'1 0.5
2017-Mar-15 17:34N 48°32' W 122°60'5 5.2
2017-Mar-15 16:30N 48°34' W 122°53'11 5.5
2017-Mar-15 14:32N 48°31' W 122°37'0 0.1
2017-Mar-15 13:29N 48°31' W 122°37'0 0.0
2017-Mar-15 12:23N 48°31' W 122°37'0 0.0
2017-Mar-15 11:17N 48°31' W 122°37'0 0.0
2017-Mar-15 10:29N 48°31' W 122°37'0 0.0
2017-Mar-15 09:29N 48°31' W 122°37'0 0.0
2017-Mar-15 08:29N 48°31' W 122°37'0 0.0
2017-Mar-15 07:29N 48°31' W 122°37'0 0.0
2017-Mar-15 06:29N 48°31' W 122°37'0 0.0
2017-Mar-15 05:29N 48°31' W 122°37'0 0.0
2017-Mar-15 04:29N 48°31' W 122°37'0 0.0
2017-Mar-15 03:28N 48°31' W 122°37'8 4.0
2017-Mar-15 01:32N 48°32' W 122°48'5 4.7
2017-Mar-15 00:33N 48°34' W 122°55'4 3.9
2017-Mar-14 23:32N 48°32' W 122°60'0 0.0
2017-Mar-14 22:31N 48°32' W 122°60'0 0.0
2017-Mar-14 21:31N 48°32' W 122°60'0 0.0
2017-Mar-14 20:29N 48°32' W 122°60'0 0.0
2017-Mar-14 19:28N 48°32' W 122°60'0 0.0
2017-Mar-14 17:16N 48°32' W 122°60'0 0.0
2017-Mar-14 16:31N 48°32' W 122°60'0 0.0
2017-Mar-14 15:28N 48°32' W 122°60'0 0.0
2017-Mar-14 14:31N 48°32' W 122°60'0 0.0
2017-Mar-14 13:28N 48°32' W 122°60'0 0.0
2017-Mar-14 12:31N 48°32' W 122°60'0 0.0
2017-Mar-14 11:31N 48°32' W 122°60'0 0.0
2017-Mar-14 10:31N 48°32' W 122°60'0 0.0
2017-Mar-14 09:31N 48°32' W 122°60'0 0.0
2017-Mar-14 08:32N 48°32' W 122°60'0 0.0
2017-Mar-14 07:32N 48°32' W 122°60'0 0.0
2017-Mar-14 06:32N 48°32' W 122°60'0 0.0
2017-Mar-14 05:32N 48°32' W 122°60'0 0.0
2017-Mar-14 04:32N 48°32' W 122°60'0 0.0
2017-Mar-14 03:32N 48°32' W 122°60'0 0.0
2017-Mar-14 02:32N 48°32' W 122°60'0 0.0
2017-Mar-14 01:32N 48°32' W 122°60'0 0.0
2017-Mar-14 00:29N 48°32' W 122°60'0 0.0
2017-Mar-13 23:32N 48°32' W 122°60'  
Track history (hours):
 
Tides and Currents Weather Stations Pressure Air Temp Water Temp Dewpoint Dewpoint Depression Visibility Wind Speed Wind Dir Waves Ship Positions

Pintail

Owner: Pintail Marine Services, Inc, Friday Harbor, WA. More information available from US FCC via Universal Licensing System and Coast Guard Vessel Documentation Center.

Last reported at 2017-Mar-23 23:28 UTC. Time now 2017-Mar-24 00:18 UTC.
Position N 48°32' W 122°60'.

Length 19 m.

Type: Towing. MMSI: 367460260.

Date/timePositionNaut miles runAvg speedWind from/ knotsBaromVisibWave heightAir tempDewpointWater temp
2017-Mar-23 23:28N 48°32' W 122°60'0 0.0
2017-Mar-23 22:31N 48°32' W 122°60'0 0.0
2017-Mar-23 21:28N 48°32' W 122°60'0 0.0
2017-Mar-23 20:32N 48°32' W 122°60'4 4.5
2017-Mar-23 19:33N 48°34' W 122°54'6 5.7
2017-Mar-23 18:33N 48°32' W 122°46'3 0.2
2017-Mar-22 22:33N 48°35' W 122°45'5 5.3
2017-Mar-22 21:33N 48°34' W 122°53'6 5.4
2017-Mar-22 20:30N 48°32' W 123°00'0 0.1
2017-Mar-22 19:31N 48°32' W 122°60'0 0.0
2017-Mar-22 18:31N 48°32' W 122°60'0 0.1
2017-Mar-22 17:33N 48°32' W 122°60'6 5.5
2017-Mar-22 16:32N 48°34' W 122°53'6 5.5
2017-Mar-22 15:31N 48°32' W 122°45'3 0.2
2017-Mar-22 00:24N 48°32' W 122°40'5 5.7
2017-Mar-21 23:30N 48°32' W 122°48'5 5.0
2017-Mar-21 22:33N 48°33' W 122°55'4 3.6
2017-Mar-21 21:31N 48°32' W 122°60'0 0.0
2017-Mar-21 20:31N 48°32' W 122°60'0 0.0
2017-Mar-21 19:31N 48°32' W 122°60'0 0.0
2017-Mar-21 18:32N 48°32' W 122°60'0 0.0
2017-Mar-21 17:32N 48°32' W 122°60'0 0.0
2017-Mar-21 16:23N 48°32' W 122°60'0 0.0
2017-Mar-21 15:32N 48°32' W 122°60'0 0.0
2017-Mar-21 14:31N 48°32' W 122°60'0 0.0
2017-Mar-21 13:31N 48°32' W 122°60'0 0.0
2017-Mar-21 12:31N 48°32' W 122°60'0 0.0
2017-Mar-21 11:31N 48°32' W 122°60'0 0.0
2017-Mar-21 10:31N 48°32' W 122°60'0 0.0
2017-Mar-21 09:31N 48°32' W 122°60'0 0.0
2017-Mar-21 08:31N 48°32' W 122°60'0 0.0
2017-Mar-21 07:31N 48°32' W 122°60'0 0.0
2017-Mar-21 06:31N 48°32' W 122°60'0 0.0
2017-Mar-21 05:31N 48°32' W 122°60'0 0.0
2017-Mar-21 04:31N 48°32' W 122°60'0 0.0
2017-Mar-21 03:31N 48°32' W 122°60'0 0.0
2017-Mar-21 02:28N 48°32' W 122°60'0 0.0
2017-Mar-21 01:28N 48°32' W 122°60'0 0.0
2017-Mar-21 00:31N 48°32' W 122°60'0 0.0
2017-Mar-20 23:28N 48°32' W 122°60'0 0.0
2017-Mar-20 22:31N 48°32' W 122°60'0 0.0
2017-Mar-20 21:28N 48°32' W 122°60'0 0.1
2017-Mar-20 20:30N 48°32' W 123°00'5 5.2
2017-Mar-20 19:33N 48°34' W 122°54'6 5.2
2017-Mar-20 18:30N 48°32' W 122°46'6 6.3
2017-Mar-20 17:33N 48°31' W 122°37'9 4.4
2017-Mar-20 15:31N 48°33' W 122°50'5 5.0
2017-Mar-20 14:33N 48°32' W 122°58'2 1.6
2017-Mar-20 13:31N 48°32' W 122°60'0 0.0
2017-Mar-20 12:31N 48°32' W 122°60'0 0.0
2017-Mar-20 11:31N 48°32' W 122°60'0 0.0
2017-Mar-20 10:28N 48°32' W 122°60'0 0.0
2017-Mar-20 09:31N 48°32' W 122°60'0 0.0
2017-Mar-20 08:28N 48°32' W 122°60'0 0.0
2017-Mar-20 07:31N 48°32' W 122°60'0 0.0
2017-Mar-20 06:31N 48°32' W 122°60'0 0.0
2017-Mar-20 05:31N 48°32' W 122°60'0 0.0
2017-Mar-20 04:28N 48°32' W 122°60'0 0.0
2017-Mar-20 03:31N 48°32' W 122°60'0 0.0
2017-Mar-20 02:31N 48°32' W 122°60'0 0.0
2017-Mar-20 01:31N 48°32' W 122°60'0 0.0
2017-Mar-20 00:31N 48°32' W 122°60'0 0.0
2017-Mar-19 23:31N 48°32' W 122°60'0 0.0
2017-Mar-19 22:31N 48°32' W 122°60'0 0.0
2017-Mar-19 21:31N 48°32' W 122°60'0 0.0
2017-Mar-19 20:31N 48°32' W 122°60'0 0.0
2017-Mar-19 19:31N 48°32' W 122°60'0 0.0
2017-Mar-19 18:31N 48°32' W 122°60'0 0.0
2017-Mar-19 17:32N 48°32' W 122°60'0 0.0
2017-Mar-19 16:32N 48°32' W 122°60'0 0.0
2017-Mar-19 15:31N 48°32' W 122°60'0 0.0
2017-Mar-19 14:28N 48°32' W 122°60'0 0.0
2017-Mar-19 13:31N 48°32' W 122°60'0 0.0
2017-Mar-19 12:28N 48°32' W 122°60'0 0.0
2017-Mar-19 11:31N 48°32' W 122°60'0 0.0
2017-Mar-19 10:31N 48°32' W 122°60'0 0.0
2017-Mar-19 09:31N 48°32' W 122°60'0 0.0
2017-Mar-19 08:31N 48°32' W 122°60'0 0.0
2017-Mar-19 07:31N 48°32' W 122°60'0 0.0
2017-Mar-19 06:32N 48°32' W 122°60'0 0.0
2017-Mar-19 05:32N 48°32' W 122°60'0 0.0
2017-Mar-19 04:32N 48°32' W 122°60'0 0.0
2017-Mar-19 03:32N 48°32' W 122°60'0 0.0
2017-Mar-19 02:32N 48°32' W 122°60'0 0.0
2017-Mar-19 01:32N 48°32' W 122°60'3 3.0
2017-Mar-19 00:33N 48°33' W 122°56'4 3.5
2017-Mar-18 23:33N 48°32' W 122°51'4 3.8
2017-Mar-18 22:30N 48°30' W 122°45'33 1.6
2017-Mar-18 01:11N 48°01' W 122°21'4 6.3
2017-Mar-18 00:33N 47°57' W 122°20'6 5.9
2017-Mar-17 23:33N 47°51' W 122°23'6 6.0
2017-Mar-17 22:33N 47°45' W 122°25'7 6.6
2017-Mar-17 21:33N 47°39' W 122°27'7 7.0
2017-Mar-17 20:33N 47°32' W 122°25'7 6.9
2017-Mar-17 19:33N 47°25' W 122°22'6 5.9
2017-Mar-17 18:33N 47°20' W 122°25'0 0.0
2017-Mar-17 11:33N 47°20' W 122°25'5 5.5
2017-Mar-17 10:34N 47°25' W 122°23'6 5.7
2017-Mar-17 09:33N 47°31' W 122°26'6 5.9
2017-Mar-17 08:33N 47°36' W 122°28'5 5.3
2017-Mar-17 07:33N 47°41' W 122°28'5 4.9
2017-Mar-17 06:33N 47°46' W 122°27'5 5.4
2017-Mar-17 05:33N 47°52' W 122°29'38 5.9
2017-Mar-16 23:12N 48°25' W 122°55'3 4.5
2017-Mar-16 22:33N 48°28' W 122°57'5 4.9
2017-Mar-16 21:33N 48°32' W 122°60'0 0.1
2017-Mar-16 20:33N 48°32' W 122°60'6 5.5
2017-Mar-16 19:32N 48°34' W 122°52'5 5.4
2017-Mar-16 18:33N 48°32' W 122°44'5 4.3
2017-Mar-16 17:22N 48°31' W 122°36'4 4.4
2017-Mar-16 16:23N 48°32' W 122°43'5 5.4
2017-Mar-16 15:32N 48°32' W 122°50'4 4.4
2017-Mar-16 14:34N 48°33' W 122°56'3 2.7
2017-Mar-16 13:32N 48°32' W 122°60'0 0.0
2017-Mar-16 12:29N 48°32' W 122°60'0 0.0
2017-Mar-16 11:32N 48°32' W 122°60'0 0.0
2017-Mar-16 10:32N 48°32' W 122°60'0 0.0
2017-Mar-16 09:29N 48°32' W 122°60'0 0.0
2017-Mar-16 08:32N 48°32' W 122°60'0 0.0
2017-Mar-16 07:29N 48°32' W 122°60'0 0.0
2017-Mar-16 06:32N 48°32' W 122°60'0 0.0
2017-Mar-16 05:32N 48°32' W 122°60'0 0.0
2017-Mar-16 04:29N 48°32' W 122°60'0 0.0
2017-Mar-16 03:29N 48°32' W 122°60'5 5.0
2017-Mar-16 02:33N 48°34' W 122°54'6 6.2
2017-Mar-16 01:33N 48°31' W 122°45'5 5.4
2017-Mar-16 00:33N 48°31' W 122°37'7 4.9
2017-Mar-15 23:08N 48°31' W 122°47'3 6.0
2017-Mar-15 22:33N 48°34' W 122°51'6 5.5
2017-Mar-15 21:33N 48°32' W 122°59'1 0.6
2017-Mar-15 20:31N 48°32' W 122°60'0 0.0
2017-Mar-15 19:31N 48°32' W 122°60'0 0.4
2017-Mar-15 18:32N 48°32' W 123°00'1 0.5
2017-Mar-15 17:34N 48°32' W 122°60'5 5.2
2017-Mar-15 16:30N 48°34' W 122°53'11 5.5
2017-Mar-15 14:32N 48°31' W 122°37'0 0.1
2017-Mar-15 13:29N 48°31' W 122°37'0 0.0
2017-Mar-15 12:23N 48°31' W 122°37'0 0.0
2017-Mar-15 11:17N 48°31' W 122°37'0 0.0
2017-Mar-15 10:29N 48°31' W 122°37'0 0.0
2017-Mar-15 09:29N 48°31' W 122°37'0 0.0
2017-Mar-15 08:29N 48°31' W 122°37'0 0.0
2017-Mar-15 07:29N 48°31' W 122°37'0 0.0
2017-Mar-15 06:29N 48°31' W 122°37'0 0.0
2017-Mar-15 05:29N 48°31' W 122°37'0 0.0
2017-Mar-15 04:29N 48°31' W 122°37'0 0.0
2017-Mar-15 03:28N 48°31' W 122°37'8 4.0
2017-Mar-15 01:32N 48°32' W 122°48'5 4.7
2017-Mar-15 00:33N 48°34' W 122°55'4 3.9
2017-Mar-14 23:32N 48°32' W 122°60'0 0.0
2017-Mar-14 22:31N 48°32' W 122°60'0 0.0
2017-Mar-14 21:31N 48°32' W 122°60'0 0.0
2017-Mar-14 20:29N 48°32' W 122°60'0 0.0
2017-Mar-14 19:28N 48°32' W 122°60'0 0.0
2017-Mar-14 17:16N 48°32' W 122°60'0 0.0
2017-Mar-14 16:31N 48°32' W 122°60'0 0.0
2017-Mar-14 15:28N 48°32' W 122°60'0 0.0
2017-Mar-14 14:31N 48°32' W 122°60'0 0.0
2017-Mar-14 13:28N 48°32' W 122°60'0 0.0
2017-Mar-14 12:31N 48°32' W 122°60'0 0.0
2017-Mar-14 11:31N 48°32' W 122°60'0 0.0
2017-Mar-14 10:31N 48°32' W 122°60'0 0.0
2017-Mar-14 09:31N 48°32' W 122°60'0 0.0
2017-Mar-14 08:32N 48°32' W 122°60'0 0.0
2017-Mar-14 07:32N 48°32' W 122°60'0 0.0
2017-Mar-14 06:32N 48°32' W 122°60'0 0.0
2017-Mar-14 05:32N 48°32' W 122°60'0 0.0
2017-Mar-14 04:32N 48°32' W 122°60'0 0.0
2017-Mar-14 03:32N 48°32' W 122°60'0 0.0
2017-Mar-14 02:32N 48°32' W 122°60'0 0.0
2017-Mar-14 01:32N 48°32' W 122°60'0 0.0
2017-Mar-14 00:29N 48°32' W 122°60'0 0.0
2017-Mar-13 23:32N 48°32' W 122°60'  

Dump ship's entire track history